地図

経路データ

SID SEASON NUMBER BASIN SUBBASIN NAME ISO_TIME NATURE LAT LON WMO_WIND WMO_PRES WMO_AGENCY TRACK_TYPE DIST2LAND LANDFALL IFLAG USA_AGENCY USA_ATCF_ID USA_LAT USA_LON USA_RECORD USA_STATUS USA_WIND USA_PRES USA_SSHS USA_R34_NE USA_R34_SE USA_R34_SW USA_R34_NW USA_R50_NE USA_R50_SE USA_R50_SW USA_R50_NW USA_R64_NE USA_R64_SE USA_R64_SW USA_R64_NW USA_POCI USA_ROCI USA_RMW USA_EYE TOKYO_LAT TOKYO_LON TOKYO_GRADE TOKYO_WIND TOKYO_PRES TOKYO_R50_DIR TOKYO_R50_LONG TOKYO_R50_SHORT TOKYO_R30_DIR TOKYO_R30_LONG TOKYO_R30_SHORT TOKYO_LAND CMA_LAT CMA_LON CMA_CAT CMA_WIND CMA_PRES HKO_LAT HKO_LON HKO_CAT HKO_WIND HKO_PRES NEWDELHI_LAT NEWDELHI_LON NEWDELHI_GRADE NEWDELHI_WIND NEWDELHI_PRES NEWDELHI_CI NEWDELHI_DP NEWDELHI_POCI REUNION_LAT REUNION_LON REUNION_TYPE REUNION_WIND REUNION_PRES REUNION_TNUM REUNION_CI REUNION_RMW REUNION_R34_NE REUNION_R34_SE REUNION_R34_SW REUNION_R34_NW REUNION_R50_NE REUNION_R50_SE REUNION_R50_SW REUNION_R50_NW REUNION_R64_NE REUNION_R64_SE REUNION_R64_SW REUNION_R64_NW BOM_LAT BOM_LON BOM_TYPE BOM_WIND BOM_PRES BOM_TNUM BOM_CI BOM_RMW BOM_R34_NE BOM_R34_SE BOM_R34_SW BOM_R34_NW BOM_R50_NE BOM_R50_SE BOM_R50_SW BOM_R50_NW BOM_R64_NE BOM_R64_SE BOM_R64_SW BOM_R64_NW BOM_ROCI BOM_POCI BOM_EYE BOM_POS_METHOD BOM_PRES_METHOD NADI_LAT NADI_LON NADI_CAT NADI_WIND NADI_PRES WELLINGTON_LAT WELLINGTON_LON WELLINGTON_WIND WELLINGTON_PRES DS824_LAT DS824_LON DS824_STAGE DS824_WIND DS824_PRES TD9636_LAT TD9636_LON TD9636_STAGE TD9636_WIND TD9636_PRES TD9635_LAT TD9635_LON TD9635_WIND TD9635_PRES TD9635_ROCI NEUMANN_LAT NEUMANN_LON NEUMANN_CLASS NEUMANN_WIND NEUMANN_PRES MLC_LAT MLC_LON MLC_CLASS MLC_WIND MLC_PRES USA_GUST BOM_GUST BOM_GUST_PER REUNION_GUST REUNION_GUST_PER USA_SEAHGT USA_SEARAD_NE USA_SEARAD_SE USA_SEARAD_SW USA_SEARAD_NW STORM_SPEED STORM_DIR
1970124S18108 1970 42 SI WA LULU 1970-05-04 01:00:00 NR -17.8000 107.900 1002 bom main 785 753 ______O_______ -1 -17.8000 107.900 1002 8 101
1970124S18108 1970 42 SI WA LULU 1970-05-04 03:00:00 NR -17.8532 108.184 main 753 720 ______P_______ -1 -17.8532 108.184 8 100
1970124S18108 1970 42 SI WA LULU 1970-05-04 06:00:00 TS -17.9235 108.609 main 720 680 ______P_____O_ -1 -17.9313 108.612 -17.9000 108.600 TC 25 1001 8 99
1970124S18108 1970 42 SI WA LULU 1970-05-04 09:00:00 TS -17.9885 109.043 main 680 641 ______P_____P_ -1 -18.0065 109.046 -17.9526 109.037 TC 25 1001 9 98
1970124S18108 1970 42 SI WA LULU 1970-05-04 12:00:00 TS -18.0441 109.494 main 641 595 ______P_____O_ -1 -18.0772 109.489 -18.0000 109.500 TC 25 1001 9 97
1970124S18108 1970 42 SI WA LULU 1970-05-04 15:00:00 TS -18.0924 109.973 main 595 552 ______P_____P_ -1 -18.1423 109.945 -18.0425 110.000 TC 27 1000 9 97
1970124S18108 1970 42 SI WA LULU 1970-05-04 18:00:00 TS -18.1501 110.459 main 552 525 ______P_____O_ -1 -18.2003 110.417 -18.1000 110.500 TC 30 1000 9 99
1970124S18108 1970 42 SI WA LULU 1970-05-04 21:00:00 TS -18.2285 110.926 main 525 485 ______P_____P_ -1 -18.2497 110.909 -18.2072 110.942 TC 30 1000 9 99
1970124S18108 1970 42 SI WA LULU 1970-05-05 00:00:00 TS -18.2952 111.410 main 485 474 ______P__O__O_ -1 -18.2893 111.423 -18.3000 111.400 TC 30 1000 -18.3000 111.400 TC 30 1000 10 97
1970124S18108 1970 42 SI WA LULU 1970-05-05 01:00:00 TS -18.3073 111.595 1000 bom main 474 453 ______O__P__P_ -1 -18.3000 111.600 1000 -18.3189 111.632 TC -18.3088 111.572 TC 30 999 11 93
1970124S18108 1970 42 SI WA LULU 1970-05-05 03:00:00 TS -18.3245 111.989 main 453 417 ______P__P__P_ -1 -18.3179 111.963 -18.3559 112.095 TC -18.3075 111.935 TC 30 999 11 93
1970124S18108 1970 42 SI WA LULU 1970-05-05 06:00:00 TS -18.3502 112.602 main 417 400 ______P__P__O_ -1 -18.3400 112.526 -18.4107 112.780 TC -18.3000 112.500 TC 30 999 12 93
1970124S18108 1970 42 SI WA LULU 1970-05-05 09:00:00 TS -18.3906 113.198 main 400 373 ______P__P__P_ -1 -18.3640 113.106 -18.4655 113.445 TC -18.3423 113.042 TC 32 998 11 95
1970124S18108 1970 42 SI WA LULU 1970-05-05 12:00:00 TS -18.4401 113.793 main 373 327 ______P__P__O_ -1 -18.3981 113.699 -18.5221 114.079 TC -18.4000 113.600 TC 35 998 11 95
1970124S18108 1970 42 SI WA LULU 1970-05-05 15:00:00 TS -18.4917 114.388 main 327 305 ______P__P__P_ -1 -18.4506 114.299 -18.5820 114.672 TC -18.4424 114.193 TC 35 998 11 96
1970124S18108 1970 42 SI WA LULU 1970-05-05 17:00:00 TS -18.5341 114.779 998 bom main 305 285 ______O__P__P_ -1 -18.5000 114.700 998 -18.6247 115.039 TC -18.4775 114.597 TC 35 998 11 97
1970124S18108 1970 42 SI WA LULU 1970-05-05 18:00:00 TS -18.5595 114.975 main 285 241 ______P__P__O_ -1 -18.5316 114.913 997 -18.6471 115.213 TC -18.5000 114.800 TC 35 998 11 99
1970124S18108 1970 42 SI WA LULU 1970-05-05 21:00:00 TS -18.6508 115.562 main 241 210 ______P__P__P_ -1 -18.6407 115.547 997 -18.7191 115.693 TC -18.5927 115.445 TC 35 997 11 101
1970124S18108 1970 42 SI WA LULU 1970-05-06 00:00:00 TS -18.7534 116.076 main 210 208 ______P__O__O_ -1 -18.7602 116.129 996 -18.8000 116.100 TC 35 996 -18.7000 116.000 TC 35 996 10 102
1970124S18108 1970 42 SI WA LULU 1970-05-06 01:00:00 TS -18.7875 116.221 996 bom main 208 191 ______O__P__P_ -1 -18.8000 116.300 996 4 -18.8293 116.218 TC -18.7332 116.145 TC 35 996 8 105
1970124S18108 1970 42 SI WA LULU 1970-05-06 03:00:00 TS -18.8548 116.463 main 191 178 ______P__P__P_ -1 -18.8737 116.586 -18.8910 116.428 TC -18.7998 116.375 TC 35 996 6 109
1970124S18108 1970 42 SI WA LULU 1970-05-06 06:00:00 TS -18.9580 116.731 main 178 168 ______P__P__O_ -1 -18.9838 116.910 -18.9902 116.684 TC -18.9000 116.600 TC 35 997 5 116
1970124S18108 1970 42 SI WA LULU 1970-05-06 09:00:00 TS -19.0624 116.909 main 168 157 ______P__P__P_ -1 -19.0925 117.127 -19.0950 116.879 TC -18.9999 116.723 TC 35 997 3 127
1970124S18108 1970 42 SI WA LULU 1970-05-06 12:00:00 TS -19.1671 117.026 main 157 148 ______P__P__O_ -1 -19.1988 117.255 -19.2024 117.023 TC -19.1000 116.800 TC 35 998 3 135
1970124S18108 1970 42 SI WA LULU 1970-05-06 15:00:00 TS -19.2704 117.131 main 148 140 ______P__P__P_ -1 -19.3015 117.317 -19.3096 117.126 TC -19.2000 116.950 TC 32 999 3 139
1970124S18108 1970 42 SI WA LULU 1970-05-06 18:00:00 TS -19.3710 117.211 main 140 128 ______P__P__O_ -1 -19.3992 117.332 -19.4136 117.200 TC -19.3000 117.100 TC 30 1000 2 147
1970124S18108 1970 42 SI WA LULU 1970-05-06 21:00:00 TS -19.4673 117.261 main 128 118 ______P__P__P_ -1 -19.4906 117.321 -19.5114 117.254 TC -19.4000 117.208 TC 27 1001 2 156
1970124S18108 1970 42 SI WA LULU 1970-05-07 00:00:00 TS -19.5580 117.301 main 118 118 ______P__O__O_ -1 -19.5741 117.304 -19.6000 117.300 TC 25 1003 -19.5000 117.300 TC 25 1002 2 155
1970124S18108 1970 42 SI WA LULU 1970-05-07 01:00:00 TS -19.5860 117.323 1003 bom main 118 113 ______O__P__P_ -1 -19.6000 117.300 1003 -19.6221 117.333 TC -19.5360 117.336 TC 25 1002 2 135
1970124S18108 1970 42 SI WA LULU 1970-05-07 03:00:00 TS -19.6377 117.386 main 113 98 ______P__P__P_ -1 -19.6430 117.357 -19.6627 117.393 TC -19.6075 117.407 TC 25 1002 2 131
1970124S18108 1970 42 SI WA LULU 1970-05-07 06:00:00 TS -19.7052 117.468 main 98 88 ______P__P__O_ -1 -19.6993 117.433 -19.7163 117.470 TC -19.7000 117.500 TC 25 1003 2 131
1970124S18108 1970 42 SI WA LULU 1970-05-07 09:00:00 TS -19.7565 117.529 main 88 84 ______P__P__P_ -1 -19.7484 117.497 -19.7635 117.533 TC -19.7575 117.558 TC 22 1004 1 132
1970124S18108 1970 42 SI WA LULU 1970-05-07 12:00:00 TS -19.8001 117.578 main 84 84 ______P__P__O_ -1 -19.7930 117.552 -19.8072 117.583 TC -19.8000 117.600 TC 20 1005 1 135
1970124S18108 1970 42 SI WA LULU 1970-05-07 15:00:00 TS -19.8452 117.623 main 84 69 ______P__P__P_ -1 -19.8357 117.597 -19.8499 117.623 TC -19.8500 117.650 TC 17 1005 1 140
1970124S18108 1970 42 SI WA LULU 1970-05-07 18:00:00 TS -19.8913 117.663 main 69 69 ______P__P__O_ -1 -19.8793 117.635 -19.8945 117.654 TC -19.9000 117.700 TC 15 1006 1 143
1970124S18108 1970 42 SI WA LULU 1970-05-07 21:00:00 TS -19.9401 117.701 main 69 59 ______P__P__P_ -1 -19.9266 117.666 -19.9436 117.679 TC -19.9500 117.757 TC 15 1006 1 145
1970124S18108 1970 42 SI WA LULU 1970-05-08 00:00:00 TS -19.9934 117.731 main 59 59 ______P__O__O_ -1 -19.9802 117.692 -20.0000 117.700 TC 15 1008 -20.0000 117.800 TC 15 1007 1 155
1970124S18108 1970 42 SI WA LULU 1970-05-08 01:00:00 TS -20.0116 117.737 1008 bom main 59 49 ______O__P__P_ -1 -20.0000 117.700 1008 -20.0208 117.706 TC -20.0140 117.806 TC 14 1007 1 0
1970124S18108 1970 42 SI WA LULU 1970-05-08 03:00:00 TS -20.0503 117.746 main 49 45 ______P__P__P_ -1 -20.0427 117.714 -20.0657 117.718 TC -20.0425 117.808 TC 12 1007 1 0
1970124S18108 1970 42 SI WA LULU 1970-05-08 06:00:00 TS -20.1182 117.755 main 45 35 ______P__P__O_ -1 -20.1144 117.733 -20.1401 117.734 TC -20.1000 117.800 TC 10 1008 2 174
1970124S18108 1970 42 SI WA LULU 1970-05-08 09:00:00 TS -20.2028 117.763 main 35 24 ______P__P__P_ -1 -20.1939 117.748 -20.2220 117.747 TC -20.1925 117.793 TC 10 1008 2 0
1970124S18108 1970 42 SI WA LULU 1970-05-08 12:00:00 TS -20.2967 117.774 main 24 15 ______P__P__O_ -1 -20.2801 117.761 -20.3101 117.760 TC -20.3000 117.800 TC 10 1008 2 171
1970124S18108 1970 42 SI WA LULU 1970-05-08 15:00:00 TS -20.3941 117.798 main 15 10 ______P__P__P_ -1 -20.3717 117.772 -20.4032 117.771 TC -20.4075 117.850 TC 12 1008 2 169
1970124S18108 1970 42 SI WA LULU 1970-05-08 18:00:00 TS -20.4870 117.817 main 10 10 ______P__P__O_ -1 -20.4674 117.781 -20.5001 117.781 TC -20.5000 117.900 TC 15 1008 2 172
1970124S18108 1970 42 SI WA LULU 1970-05-08 21:00:00 TS -20.5739 117.825 main 10 0 ______P__P__P_ -1 -20.5661 117.790 -20.5994 117.791 TC -20.5600 117.913 TC 15 1008 2 173
1970124S18108 1970 42 SI WA LULU 1970-05-09 00:00:00 TS -20.6582 117.824 main 0 0 ______P__O__O_ -1 -20.6664 117.797 -20.7000 117.800 TC 15 1009 -20.6000 117.900 TC 15 1008 2 0
1970124S18108 1970 42 SI WA LULU 1970-05-09 01:00:00 NR -20.7000 117.800 1009 bom main 0 ______O_______ -1 -20.7000 117.800 1009 TC TC 3 0

IBTrACS Databaseについて

本データベースは、米国NOAAが公開する1842年以降の世界の熱帯低気圧のベストトラックデータアーカイブInternational Best Track Archive for Climate Stewardship (IBTrACS)を、ウェブで閲覧しやすい形式に変換したものです。

最終更新日:2021-12-06